Time;durP1;ratioP1;P1;durP2;ratioP2;P2;SDS_P1;SDS_P2;PMS_P1;PMS_P2;Temp;Humidity;BMP_temperature;BMP_pressure;BME280_temperature;BME280_humidity;BME280_pressure;Samples;Min_cycle;Max_cycle;Signal;HPM_P1;HPM_P2
2023/07/05 00:02:23;;;;;;;6.95;3.70;;;;;;;23.38;55.61;99532.69;4432826;32;34456;-60
2023/07/05 00:04:51;;;;;;;6.87;3.90;;;;;;;23.37;55.53;99532.88;4433713;32;34983;-60
2023/07/05 00:07:18;;;;;;;5.47;3.15;;;;;;;23.36;55.33;99531.22;4435374;32;33890;-60
2023/07/05 00:09:46;;;;;;;7.60;3.25;;;;;;;23.32;55.35;99530.78;4434998;32;33476;-60
2023/07/05 00:12:14;;;;;;;5.95;2.95;;;;;;;23.31;55.37;99534.56;4434820;32;33305;-60
2023/07/05 00:14:42;;;;;;;6.30;3.17;;;;;;;23.21;55.51;99540.41;4433316;32;34513;-60
2023/07/05 00:17:10;;;;;;;8.30;3.20;;;;;;;23.24;55.13;99534.53;4431707;32;34307;-60
2023/07/05 00:19:39;;;;;;;11.20;3.60;;;;;;;23.19;55.07;99530.72;4431575;32;33779;-60
2023/07/05 00:22:06;;;;;;;10.20;3.05;;;;;;;23.14;55.12;99527.72;4430353;32;34451;-59
2023/07/05 00:24:34;;;;;;;9.23;2.92;;;;;;;23.14;54.97;99525.84;4430946;32;34913;-60
2023/07/05 00:27:02;;;;;;;4.50;2.60;;;;;;;23.07;54.92;99524.12;4433996;32;33759;-59
2023/07/05 00:29:30;;;;;;;8.52;3.50;;;;;;;23.09;54.81;99524.78;4430647;32;33935;-59
2023/07/05 00:31:57;;;;;;;5.32;2.70;;;;;;;23.04;55.04;99513.63;4433119;32;32759;-60
2023/07/05 00:34:26;;;;;;;5.40;2.87;;;;;;;23.04;55.01;99519.91;4433881;32;33675;-59
2023/07/05 00:36:54;;;;;;;12.15;3.12;;;;;;;23.04;55.04;99519.91;4435068;32;34103;-59
2023/07/05 00:39:21;;;;;;;6.15;3.17;;;;;;;22.84;55.69;99519.75;4433472;32;34397;-62
2023/07/05 00:41:50;;;;;;;7.80;3.45;;;;;;;22.81;55.70;99527.50;4433376;32;32955;-62
2023/07/05 00:44:18;;;;;;;5.03;2.45;;;;;;;22.86;55.62;99528.59;4434616;32;34568;-62
2023/07/05 00:46:47;;;;;;;6.50;2.95;;;;;;;22.88;55.66;99522.94;4431805;32;34806;-62
2023/07/05 00:49:18;;;;;;;5.03;2.75;;;;;;;22.89;55.64;99530.94;4433688;32;34957;-62
2023/07/05 00:51:55;;;;;;;6.55;3.12;;;;;;;22.91;55.58;99525.25;4426957;32;32891;-62
2023/07/05 00:54:26;;;;;;;6.65;3.42;;;;;;;22.89;55.70;99524.59;4431209;32;33674;-62
2023/07/05 00:56:58;;;;;;;5.00;2.55;;;;;;;22.89;55.86;99522.75;4431736;32;33926;-62
2023/07/05 00:59:28;;;;;;;7.93;3.62;;;;;;;22.92;55.79;99524.19;4435176;32;33659;-62
2023/07/05 01:01:56;;;;;;;4.75;2.37;;;;;;;23.04;55.40;99530.81;4427384;32;33225;-62
2023/07/05 01:04:32;;;;;;;9.65;3.33;;;;;;;23.01;55.54;99518.41;4424499;32;33730;-62
2023/07/05 01:07:00;;;;;;;7.12;3.10;;;;;;;22.99;55.46;99527.87;4435186;32;33811;-62
2023/07/05 01:09:28;;;;;;;5.65;2.78;;;;;;;22.99;55.40;99515.06;4433762;32;34286;-62
2023/07/05 01:12:15;;;;;;;6.87;2.53;;;;;;;22.86;55.83;99517.69;4430253;32;34121;-62
2023/07/05 01:14:48;;;;;;;7.55;2.92;;;;;;;23.04;55.30;99519.06;4424302;32;34778;-62
2023/07/05 01:17:16;;;;;;;6.72;3.37;;;;;;;23.03;55.26;99515.50;4428687;32;35173;-62
2023/07/05 01:20:21;;;;;;;5.00;2.70;;;;;;;23.03;55.13;99520.97;4425986;32;34576;-62
2023/07/05 01:23:08;;;;;;;9.85;2.58;;;;;;;22.91;55.12;99519.81;4434014;32;32857;-62
2023/07/05 01:26:29;;;;;;;5.87;2.67;;;;;;;22.92;55.12;99516.88;4435094;32;34821;-62
2023/07/05 01:29:10;;;;;;;4.57;2.85;;;;;;;22.88;54.90;99514.75;4402464;32;33651;-62
2023/07/05 01:32:04;;;;;;;15.00;3.42;;;;;;;22.85;54.91;99515.13;4401078;32;33607;-62
2023/07/05 01:34:42;;;;;;;8.23;2.70;;;;;;;22.77;55.14;99508.81;4407914;32;33115;-62
2023/07/05 01:37:46;;;;;;;5.60;3.12;;;;;;;22.83;54.74;99504.44;4403192;32;33954;-62
2023/07/05 01:40:20;;;;;;;9.65;3.42;;;;;;;22.83;55.10;99511.78;4397107;32;33506;-62
2023/07/05 01:42:51;;;;;;;7.20;3.33;;;;;;;22.73;54.96;99517.59;4398870;32;34696;-62
2023/07/05 01:45:27;;;;;;;5.93;2.62;;;;;;;22.58;55.38;99522.31;4401530;32;33003;-62
2023/07/05 01:47:58;;;;;;;10.10;3.00;;;;;;;22.72;54.74;99511.28;4399374;32;33914;-62
2023/07/05 01:50:36;;;;;;;7.40;2.97;;;;;;;22.67;54.72;99508.31;4405596;32;33671;-62
2023/07/05 01:53:17;;;;;;;3.95;2.20;;;;;;;22.65;54.55;99506.81;4403210;32;35112;-62
2023/07/05 01:55:50;;;;;;;4.65;2.12;;;;;;;22.57;54.70;99510.56;4400193;32;32951;-62
2023/07/05 01:58:19;;;;;;;6.50;2.85;;;;;;;22.58;54.84;99512.22;4389804;32;34540;-62
2023/07/05 02:00:48;;;;;;;7.12;3.30;;;;;;;22.59;55.20;99507.59;4389385;32;34786;-62
2023/07/05 02:03:19;;;;;;;8.23;3.37;;;;;;;22.58;55.26;99505.94;4392677;32;33860;-62
2023/07/05 02:05:47;;;;;;;8.35;3.20;;;;;;;22.60;54.95;99499.25;4404498;32;34043;-62
2023/07/05 02:08:15;;;;;;;7.80;2.60;;;;;;;22.47;54.96;99502.72;4398000;32;33941;-62
2023/07/05 02:10:42;;;;;;;5.22;2.53;;;;;;;22.45;54.90;99507.50;4403152;32;34917;-62
2023/07/05 02:13:12;;;;;;;6.80;2.92;;;;;;;22.42;54.93;99510.63;4404524;32;33622;-62
2023/07/05 02:15:40;;;;;;;4.75;2.17;;;;;;;22.45;55.09;99502.06;4402602;32;33365;-62
2023/07/05 02:18:07;;;;;;;6.87;2.95;;;;;;;22.47;55.27;99501.84;4403154;32;34430;-62
2023/07/05 02:20:35;;;;;;;6.60;3.20;;;;;;;22.48;55.14;99507.13;4404321;32;34970;-62
2023/07/05 02:23:04;;;;;;;5.95;2.15;;;;;;;22.45;55.05;99499.31;4404523;32;33466;-63
2023/07/05 02:25:31;;;;;;;8.40;3.47;;;;;;;22.47;55.00;99501.84;4402986;32;33364;-62
2023/07/05 02:27:59;;;;;;;13.18;3.25;;;;;;;22.52;54.85;99504.84;4404448;32;34978;-60
2023/07/05 02:30:27;;;;;;;13.65;2.78;;;;;;;22.55;54.66;99493.53;4404127;32;34962;-60
2023/07/05 02:32:54;;;;;;;6.28;2.80;;;;;;;;;;4395189;32;34615;-60
2023/07/05 02:35:22;;;;;;;5.60;3.42;;;;;;;22.43;55.01;99495.09;4404791;32;34945;-60
2023/07/05 02:37:50;;;;;;;7.50;3.37;;;;;;;22.45;55.03;99495.75;4404511;32;33556;-60
2023/07/05 02:40:17;;;;;;;14.95;3.30;;;;;;;22.42;55.19;99490.69;4404151;32;34201;-60
2023/07/05 02:42:45;;;;;;;7.87;3.37;;;;;;;22.35;55.25;99490.66;4405036;32;32322;-60
2023/07/05 02:45:13;;;;;;;6.62;3.25;;;;;;;22.27;55.48;99496.22;4404739;32;33100;-60
2023/07/05 02:47:40;;;;;;;7.10;3.75;;;;;;;22.25;55.37;99491.00;4402459;32;33691;-60
2023/07/05 02:50:08;;;;;;;6.97;3.15;;;;;;;22.24;55.24;99496.63;4404034;32;33816;-60
2023/07/05 02:52:36;;;;;;;8.20;3.80;;;;;;;22.26;55.09;99494.56;4401822;32;35292;-60
2023/07/05 02:55:04;;;;;;;8.13;3.08;;;;;;;22.16;55.28;99500.34;4401925;32;33554;-60
2023/07/05 02:57:31;;;;;;;7.68;2.60;;;;;;;22.24;55.04;99499.34;4401647;32;34464;-60
2023/07/05 02:59:59;;;;;;;7.12;4.15;;;;;;;22.22;55.08;99498.72;4402319;32;33941;-60
2023/07/05 03:02:27;;;;;;;6.15;3.87;;;;;;;22.15;55.30;99495.03;4422120;32;33632;-60
2023/07/05 03:04:56;;;;;;;4.03;2.70;;;;;;;22.15;55.23;99495.91;4429687;32;33360;-60
2023/07/05 03:07:23;;;;;;;7.60;3.08;;;;;;;22.17;55.13;99501.19;4432210;32;34728;-64
2023/07/05 03:09:51;;;;;;;5.85;2.78;;;;;;;22.17;55.18;99504.75;4436097;32;33908;-60
2023/07/05 03:12:20;;;;;;;8.55;4.37;;;;;;;22.16;55.03;99497.63;4435100;32;33926;-60
2023/07/05 03:14:48;;;;;;;4.37;2.60;;;;;;;22.09;54.98;99493.97;4432364;32;33226;-60
2023/07/05 03:17:16;;;;;;;5.35;3.20;;;;;;;22.10;55.13;99495.63;4433041;32;33776;-60
2023/07/05 03:19:43;;;;;;;6.07;3.15;;;;;;;22.08;55.42;99497.69;4435378;32;33813;-60
2023/07/05 03:22:11;;;;;;;5.35;2.95;;;;;;;22.16;55.07;99496.78;4434885;32;34545;-60
2023/07/05 03:24:39;;;;;;;5.72;2.67;;;;;;;22.19;55.16;99502.69;4433371;32;32999;-60
2023/07/05 03:27:08;;;;;;;8.57;3.17;;;;;;;22.15;55.29;99497.75;4435212;32;33327;-60
2023/07/05 03:29:35;;;;;;;8.75;3.00;;;;;;;22.25;55.17;99501.06;4434199;32;34942;-60
2023/07/05 03:32:04;;;;;;;7.10;3.37;;;;;;;22.25;55.43;99493.72;4433110;32;35287;-60
2023/07/05 03:34:32;;;;;;;5.68;3.62;;;;;;;22.32;55.30;99496.50;4433315;32;33468;-60
2023/07/05 03:36:59;;;;;;;10.07;3.40;;;;;;;22.40;55.15;99499.06;4436160;32;34376;-60
2023/07/05 03:39:27;;;;;;;7.72;3.25;;;;;;;22.47;54.94;99499.97;4435228;32;33869;-60
2023/07/05 03:41:55;;;;;;;5.97;2.62;;;;;;;22.43;55.12;99504.13;4433483;32;33662;-60
2023/07/05 03:44:24;;;;;;;6.93;3.17;;;;;;;22.50;55.01;99502.31;4431820;32;33345;-60
2023/07/05 03:46:52;;;;;;;10.68;3.10;;;;;;;22.37;55.75;99496.72;4435436;32;33577;-60
2023/07/05 03:49:19;;;;;;;6.37;2.78;;;;;;;22.56;55.54;99501.50;4433903;32;32301;-60
2023/07/05 03:51:47;;;;;;;6.05;3.37;;;;;;;22.66;55.44;99505.75;4434148;32;33691;-60
2023/07/05 03:54:14;;;;;;;5.37;3.10;;;;;;;22.70;55.32;99504.34;4434658;32;33128;-60
2023/07/05 03:56:42;;;;;;;6.43;3.25;;;;;;;22.71;55.43;99500.56;4435222;32;33834;-60
2023/07/05 03:59:10;;;;;;;8.93;3.20;;;;;;;22.71;55.42;99501.41;4434921;32;33888;-60
2023/07/05 04:01:38;;;;;;;6.12;2.28;;;;;;;22.61;55.67;99502.81;4434169;32;33640;-60
2023/07/05 04:04:06;;;;;;;7.12;3.45;;;;;;;22.67;55.59;99504.75;4434780;32;33103;-60
2023/07/05 04:06:33;;;;;;;7.12;2.85;;;;;;;22.72;55.55;99500.34;4435139;32;33583;-60
2023/07/05 04:09:01;;;;;;;9.63;2.97;;;;;;;22.77;55.54;99499.78;4434591;32;34240;-60
2023/07/05 04:11:29;;;;;;;9.05;3.37;;;;;;;22.71;56.09;99495.94;4434993;32;33719;-60
2023/07/05 04:13:57;;;;;;;8.48;3.62;;;;;;;22.89;55.75;99498.19;4428788;32;33012;-60
2023/07/05 04:16:26;;;;;;;6.15;3.20;;;;;;;23.00;55.52;99507.72;4435178;32;35175;-60
2023/07/05 04:18:56;;;;;;;7.20;3.83;;;;;;;23.12;55.33;99502.53;4435139;32;35775;-60
2023/07/05 04:21:24;;;;;;;6.68;3.78;;;;;;;23.21;55.29;99514.94;4432898;32;35049;-63
2023/07/05 04:23:52;;;;;;;8.57;3.45;;;;;;;23.30;55.14;99507.44;4427672;32;34035;-61
2023/07/05 04:26:22;;;;;;;7.53;3.22;;;;;;;23.39;55.19;99511.69;4435979;32;34544;-62
2023/07/05 04:28:50;;;;;;;7.95;3.65;;;;;;;23.45;55.27;99506.25;4435346;32;33968;-61
2023/07/05 04:31:23;;;;;;;7.95;3.33;;;;;;;23.57;55.17;99514.72;4432092;32;34619;-61
2023/07/05 04:33:51;;;;;;;9.40;3.62;;;;;;;23.66;55.14;99518.97;4432719;32;33174;-61
2023/07/05 04:36:19;;;;;;;6.72;3.20;;;;;;;23.74;55.10;99520.69;4435375;32;33580;-63
2023/07/05 04:38:58;;;;;;;8.10;4.10;;;;;;;23.78;55.14;99523.84;4431414;32;34978;-61
2023/07/05 04:41:26;;;;;;;10.45;4.20;;;;;;;23.84;55.01;99515.66;4433818;32;33918;-63
2023/07/05 04:43:54;;;;;;;9.88;4.43;;;;;;;23.92;55.01;99520.94;4434545;32;34177;-62
2023/07/05 04:46:22;;;;;;;11.00;5.35;;;;;;;24.02;55.01;99522.44;4430953;32;34442;-62
2023/07/05 04:48:50;;;;;;;8.57;4.10;;;;;;;24.03;55.13;99524.97;4431726;32;35337;-62
2023/07/05 04:51:18;;;;;;;8.25;4.32;;;;;;;24.15;55.24;99528.78;4433303;32;33743;-62
2023/07/05 04:53:46;;;;;;;8.57;4.35;;;;;;;24.27;55.14;99530.88;4433356;32;33344;-61
2023/07/05 04:56:15;;;;;;;8.35;3.72;;;;;;;24.37;54.79;99534.91;4436035;32;34736;-62
2023/07/05 04:58:43;;;;;;;8.57;4.18;;;;;;;24.42;54.70;99525.25;4436377;32;33881;-62
2023/07/05 05:01:13;;;;;;;8.35;4.32;;;;;;;24.48;54.74;99527.16;4426214;32;33614;-62
2023/07/05 05:03:41;;;;;;;12.82;5.15;;;;;;;24.52;54.83;99529.25;4430564;32;34426;-62
2023/07/05 05:06:09;;;;;;;10.85;4.37;;;;;;;24.68;54.61;99527.13;4435933;32;33438;-62
2023/07/05 05:08:37;;;;;;;7.82;4.32;;;;;;;24.74;54.62;99534.50;4431682;32;31838;-62
2023/07/05 05:11:05;;;;;;;11.65;5.57;;;;;;;24.75;54.36;99538.91;4432025;32;33668;-62
2023/07/05 05:13:35;;;;;;;12.18;5.40;;;;;;;24.83;54.50;99536.81;4428796;32;33152;-61
2023/07/05 05:16:03;;;;;;;8.65;4.12;;;;;;;24.92;54.67;99531.97;4434637;32;34757;-62
2023/07/05 05:18:32;;;;;;;9.77;4.68;;;;;;;25.05;54.54;99526.47;4434986;32;34085;-60
2023/07/05 05:21:00;;;;;;;10.55;5.68;;;;;;;25.00;54.28;99525.41;4434912;32;34049;-60
2023/07/05 05:23:29;;;;;;;10.25;5.12;;;;;;;24.84;55.18;99529.44;4430444;32;33333;-60
2023/07/05 05:25:58;;;;;;;12.55;5.20;;;;;;;25.20;54.36;99525.38;4432186;32;33612;-60
2023/07/05 05:28:26;;;;;;;11.88;4.37;;;;;;;25.00;54.53;99530.88;4435014;32;34010;-60
2023/07/05 05:31:05;;;;;;;9.10;4.43;;;;;;;25.21;54.03;99518.88;4431889;32;34816;-60
2023/07/05 05:33:33;;;;;;;7.93;4.37;;;;;;;25.33;54.13;99528.94;4428277;32;34216;-60
2023/07/05 05:36:01;;;;;;;8.68;4.55;;;;;;;25.62;53.58;99520.37;4435272;32;32320;-61
2023/07/05 05:38:29;;;;;;;7.43;4.55;;;;;;;25.67;53.61;99518.69;4432800;32;33736;-61
2023/07/05 05:41:03;;;;;;;8.65;4.93;;;;;;;25.98;52.80;99522.56;4434725;32;35198;-61
2023/07/05 05:43:30;;;;;;;8.63;4.78;;;;;;;26.08;52.39;99522.06;4428881;32;33983;-61
2023/07/05 05:45:58;;;;;;;12.50;5.00;;;;;;;26.23;52.20;99519.88;4434414;32;33778;-60
2023/07/05 05:48:26;;;;;;;15.15;5.55;;;;;;;26.38;51.78;99514.03;4430931;32;34115;-61
2023/07/05 05:50:54;;;;;;;11.23;5.80;;;;;;;25.91;52.27;99521.75;4432753;32;34700;-61
2023/07/05 05:53:22;;;;;;;9.88;4.62;;;;;;;26.21;52.00;99519.22;4433762;32;33173;-61
2023/07/05 05:55:49;;;;;;;11.85;5.28;;;;;;;25.98;52.32;99525.31;4432649;32;33930;-61
2023/07/05 05:58:17;;;;;;;9.70;5.03;;;;;;;26.29;52.59;99518.13;4434077;32;35293;-61
2023/07/05 06:00:46;;;;;;;11.07;6.45;;;;;;;26.09;52.53;99513.63;4432430;32;34461;-62
2023/07/05 06:03:14;;;;;;;9.45;4.62;;;;;;;26.26;51.99;99519.44;4432877;32;33013;-62
2023/07/05 06:05:42;;;;;;;9.10;4.40;;;;;;;26.12;52.23;99513.16;4433582;32;33772;-62
2023/07/05 06:08:09;;;;;;;7.10;3.97;;;;;;;26.09;52.99;99513.63;4427510;32;34827;-62
2023/07/05 06:10:37;;;;;;;7.40;4.18;;;;;;;26.43;51.99;99508.72;4432621;32;35178;-61
2023/07/05 06:13:05;;;;;;;7.95;4.62;;;;;;;26.51;50.51;99511.22;4431054;32;33637;-62
2023/07/05 06:15:34;;;;;;;14.95;4.90;;;;;;;26.44;50.59;99511.25;4432565;32;34341;-61
2023/07/05 06:18:02;;;;;;;10.48;4.53;;;;;;;26.51;50.94;99504.87;4433398;32;32756;-62
2023/07/05 06:20:33;;;;;;;9.00;4.65;;;;;;;26.52;50.86;99507.44;4432166;32;34045;-62
2023/07/05 06:23:03;;;;;;;12.05;5.90;;;;;;;26.40;50.98;99504.53;4429585;32;33214;-61
2023/07/05 06:25:31;;;;;;;9.15;4.85;;;;;;;26.53;50.68;99498.13;4431074;32;33537;-61
2023/07/05 06:27:58;;;;;;;7.70;4.50;;;;;;;26.46;50.95;99506.37;4433873;32;34146;-61
2023/07/05 06:30:26;;;;;;;8.52;4.18;;;;;;;26.74;50.00;99507.00;4433566;32;33160;-62
2023/07/05 06:32:55;;;;;;;9.23;4.03;;;;;;;26.45;51.31;99506.59;4428038;32;33172;-62
2023/07/05 06:35:22;;;;;;;8.88;4.47;;;;;;;26.51;50.69;99500.22;4427320;32;33734;-62
2023/07/05 06:37:50;;;;;;;13.90;5.07;;;;;;;26.72;51.21;99504.50;4431217;32;33861;-63
2023/07/05 06:40:18;;;;;;;9.27;5.00;;;;;;;26.79;49.50;99504.44;4434009;32;33400;-62
2023/07/05 06:42:45;;;;;;;13.23;4.37;;;;;;;26.84;50.30;99499.13;4433193;32;33068;-62
2023/07/05 06:45:13;;;;;;;8.32;4.95;;;;;;;27.02;49.78;99504.59;4433596;32;33720;-62
2023/07/05 06:47:41;;;;;;;9.55;4.75;;;;;;;26.94;50.26;99500.25;4431771;32;34727;-62
2023/07/05 06:50:09;;;;;;;8.40;5.50;;;;;;;27.13;49.90;99500.28;4433876;32;32452;-62
2023/07/05 06:52:37;;;;;;;10.75;4.43;;;;;;;27.12;50.37;99496.66;4433056;32;33111;-62
2023/07/05 06:55:06;;;;;;;8.52;4.18;;;;;;;27.14;50.25;99493.75;4434763;32;33967;-62
2023/07/05 06:57:34;;;;;;;9.25;5.10;;;;;;;27.48;50.33;99494.16;4426297;32;33683;-62
2023/07/05 07:00:01;;;;;;;7.82;4.85;;;;;;;27.36;49.05;99499.63;4434989;32;35626;-62
2023/07/05 07:02:30;;;;;;;7.80;3.97;;;;;;;27.33;50.26;99495.41;4422018;32;34446;-62
2023/07/05 07:04:58;;;;;;;11.55;5.82;;;;;;;27.50;49.85;99497.53;4423479;32;33679;-61
2023/07/05 07:07:26;;;;;;;7.97;4.93;;;;;;;27.56;50.52;99497.44;4429661;32;33721;-62
2023/07/05 07:09:56;;;;;;;8.00;4.87;;;;;;;27.44;49.16;99496.53;4430120;32;32960;-62
2023/07/05 07:12:26;;;;;;;14.95;4.55;;;;;;;27.65;49.44;99489.72;4429634;32;33192;-62
2023/07/05 07:14:54;;;;;;;11.40;5.15;;;;;;;27.85;48.82;99486.72;4428013;32;34653;-62
2023/07/05 07:17:21;;;;;;;11.30;5.00;;;;;;;27.97;48.78;99487.59;4429230;32;33601;-62
2023/07/05 07:19:50;;;;;;;9.18;4.80;;;;;;;27.30;49.03;99489.53;4432160;32;33819;-62
2023/07/05 07:22:18;;;;;;;9.63;5.53;;;;;;;27.10;49.38;99493.31;4429284;32;33498;-62
2023/07/05 07:24:46;;;;;;;10.13;4.72;;;;;;;27.29;49.92;99494.19;4429814;32;33621;-62
2023/07/05 07:27:15;;;;;;;9.27;4.87;;;;;;;27.53;49.70;99494.31;4428602;32;33501;-62
2023/07/05 07:29:42;;;;;;;13.10;6.35;;;;;;;27.66;50.03;99494.12;4428351;32;33293;-62
2023/07/05 07:32:10;;;;;;;10.85;4.95;;;;;;;27.80;49.98;99489.31;4425634;32;34595;-62
2023/07/05 07:34:38;;;;;;;12.13;5.70;;;;;;;28.08;48.96;99495.03;4426824;32;33324;-62
2023/07/05 07:37:05;;;;;;;13.18;6.07;;;;;;;28.05;46.87;99492.75;4428175;32;33933;-62
2023/07/05 07:39:33;;;;;;;7.65;4.70;;;;;;;27.81;47.37;99499.28;4431973;32;35303;-62
2023/07/05 07:42:01;;;;;;;9.65;5.28;;;;;;;28.20;45.95;99492.31;4433276;32;33072;-63
2023/07/05 07:44:28;;;;;;;9.02;4.47;;;;;;;28.28;46.13;99488.38;4430645;32;33657;-63
2023/07/05 07:46:58;;;;;;;12.88;5.53;;;;;;;28.12;47.16;99489.06;4433118;32;33761;-63
2023/07/05 07:49:26;;;;;;;7.90;4.47;;;;;;;27.63;48.22;99487.19;4428385;32;34861;-61
2023/07/05 07:51:53;;;;;;;8.45;4.40;;;;;;;28.15;46.45;99489.44;4428115;32;133549;-61
2023/07/05 07:54:26;;;;;;;8.68;5.00;;;;;;;28.34;45.15;99481.94;4431837;32;34754;-62
2023/07/05 07:56:55;;;;;;;10.07;4.82;;;;;;;28.03;45.58;99481.16;4430304;32;33934;-62
2023/07/05 07:59:23;;;;;;;13.93;6.35;;;;;;;28.02;46.03;99487.72;4429450;32;33850;-62
2023/07/05 08:01:51;;;;;;;8.77;5.40;;;;;;;28.19;45.99;99489.81;4429246;32;33572;-62
2023/07/05 08:04:19;;;;;;;9.32;6.03;;;;;;;28.10;46.55;99483.81;4428492;32;33364;-62
2023/07/05 08:06:51;;;;;;;11.68;4.97;;;;;;;28.21;45.73;99488.50;4433945;32;34795;-62
2023/07/05 08:09:26;;;;;;;8.77;5.07;;;;;;;28.05;46.54;99489.16;4432314;32;34601;-62
2023/07/05 08:11:57;;;;;;;12.40;4.75;;;;;;;27.85;46.78;99484.81;4431420;32;32672;-62
2023/07/05 08:14:25;;;;;;;16.40;6.28;;;;;;;27.50;47.63;99492.88;4429479;32;33468;-62
2023/07/05 08:16:53;;;;;;;11.30;5.45;;;;;;;27.63;46.99;99492.69;4431767;32;34719;-61
2023/07/05 08:19:21;;;;;;;11.02;6.43;;;;;;;27.96;46.31;99490.56;4432275;32;35088;-62
2023/07/05 08:21:49;;;;;;;10.88;4.85;;;;;;;28.12;45.38;99480.81;4431643;32;33183;-61
2023/07/05 08:24:17;;;;;;;11.12;5.20;;;;;;;28.14;45.98;99487.75;4430948;32;34691;-62
2023/07/05 08:26:48;;;;;;;8.05;5.05;;;;;;;28.20;45.72;99477.72;4434289;32;35083;-62
2023/07/05 08:29:16;;;;;;;10.02;4.93;;;;;;;28.42;45.12;99484.38;4427593;32;33757;-62
2023/07/05 08:31:45;;;;;;;11.23;5.40;;;;;;;28.55;45.48;99478.66;4435736;32;32363;-61
2023/07/05 08:34:14;;;;;;;11.10;4.20;;;;;;;28.35;45.99;99478.13;4431540;32;33793;-61
2023/07/05 08:36:42;;;;;;;9.57;5.93;;;;;;;28.62;44.63;99485.97;4429593;32;34149;-61
2023/07/05 08:39:11;;;;;;;10.13;5.65;;;;;;;28.68;44.14;99480.31;4428655;32;35956;-61
2023/07/05 08:41:43;;;;;;;11.05;6.50;;;;;;;28.31;44.44;99486.03;4426504;32;35171;-61
2023/07/05 08:44:44;;;;;;;11.65;6.40;;;;;;;28.36;44.40;99488.06;4429111;32;35065;-62
2023/07/05 08:47:22;;;;;;;10.75;5.20;;;;;;;28.26;46.33;99494.12;4426676;32;34713;-62
2023/07/05 08:50:01;;;;;;;9.32;5.85;;;;;;;28.32;45.84;99492.38;4421881;32;34650;-61
2023/07/05 08:52:43;;;;;;;12.45;6.45;;;;;;;28.61;45.18;99493.38;4440234;32;34215;-61
2023/07/05 08:55:21;;;;;;;11.55;5.87;;;;;;;28.84;43.60;99497.22;4431114;32;33733;-63
2023/07/05 08:57:53;;;;;;;9.70;5.03;;;;;;;28.70;44.66;99494.72;4428191;32;33850;-62
2023/07/05 09:00:45;;;;;;;9.75;6.12;;;;;;;28.90;43.01;99488.81;4415704;32;33299;-62
2023/07/05 09:03:14;;;;;;;9.23;6.10;;;;;;;29.06;44.24;99484.53;4401856;32;33209;-61
2023/07/05 09:05:48;;;;;;;13.48;6.00;;;;;;;28.94;43.48;99484.50;4392619;32;33811;-61
2023/07/05 09:08:27;;;;;;;13.50;7.60;;;;;;;29.31;41.97;99486.12;4354419;32;34876;-62
2023/07/05 09:11:03;;;;;;;14.35;5.65;;;;;;;29.24;42.65;99486.28;4352233;32;34099;-62
2023/07/05 09:13:37;;;;;;;10.98;5.70;;;;;;;29.45;42.61;99485.63;4348753;32;34239;-62
2023/07/05 09:16:20;;;;;;;9.68;5.05;;;;;;;29.06;42.98;99480.94;4353963;32;35057;-62
2023/07/05 09:19:16;;;;;;;12.88;5.68;;;;;;;29.29;43.70;99483.66;4351433;32;34907;-62
2023/07/05 09:21:54;;;;;;;11.88;5.25;;;;;;;29.36;43.12;99481.59;4342379;32;33696;-62
2023/07/05 09:24:31;;;;;;;10.77;5.65;;;;;;;29.63;41.76;99473.63;4350076;32;34365;-61
2023/07/05 09:27:06;;;;;;;11.05;5.10;;;;;;;29.82;41.18;99470.66;4353530;32;33605;-61
2023/07/05 09:29:44;;;;;;;8.25;4.55;;;;;;;30.03;41.08;99474.63;4357388;32;33900;-62
2023/07/05 09:32:16;;;;;;;10.93;5.55;;;;;;;29.61;41.30;99472.19;4365188;32;34129;-62
2023/07/05 09:34:55;;;;;;;12.93;5.82;;;;;;;29.90;40.05;99475.78;4350613;32;33514;-62
2023/07/05 09:37:27;;;;;;;7.97;5.00;;;;;;;29.81;40.58;99468.97;4376320;32;34008;-61
2023/07/05 09:40:17;;;;;;;;;;;;;;;30.14;39.71;99466.28;4414216;32;34845;-61
2023/07/05 09:43:18;;;;;;;11.90;6.15;;;;;;;29.80;39.68;99461.81;4431763;32;33978;-61
2023/07/05 09:45:45;;;;;;;11.55;7.10;;;;;;;30.17;39.53;99464.94;4427266;32;33341;-61
2023/07/05 09:48:14;;;;;;;8.25;5.00;;;;;;;30.37;40.25;99453.44;4429594;32;33246;-61
2023/07/05 09:50:47;;;;;;;8.23;4.12;;;;;;;30.21;39.04;99463.41;4434008;32;33825;-61
2023/07/05 09:53:40;;;;;;;7.55;5.28;;;;;;;30.40;38.46;99459.31;4431789;32;33836;-61
2023/07/05 09:56:11;;;;;;;8.68;5.30;;;;;;;30.40;38.53;99461.19;4378116;32;33386;-61
2023/07/05 09:58:40;;;;;;;10.35;6.00;;;;;;;30.63;39.07;99452.75;4382449;32;33788;-62
2023/07/05 10:01:14;;;;;;;10.75;6.12;;;;;;;30.84;38.53;99453.91;4384601;32;34099;-62
2023/07/05 10:03:52;;;;;;;13.07;5.97;;;;;;;30.78;38.55;99459.59;4367944;32;35087;-62
2023/07/05 10:06:23;;;;;;;11.10;6.37;;;;;;;30.14;39.53;99451.63;4381515;32;33141;-61
2023/07/05 10:08:52;;;;;;;10.02;5.62;;;;;;;30.77;38.55;99447.72;4385108;32;34773;-62
2023/07/05 10:11:29;;;;;;;10.05;6.35;;;;;;;31.25;37.91;99456.38;4375985;32;34124;-62
2023/07/05 10:14:15;;;;;;;9.27;5.57;;;;;;;31.60;36.67;99453.25;4377529;32;34825;-62
2023/07/05 10:16:46;;;;;;;9.63;6.10;;;;;;;31.83;35.33;99446.56;4379917;32;34115;-62
2023/07/05 10:19:28;;;;;;;11.27;5.75;;;;;;;31.17;36.02;99448.53;4375957;32;33323;-62
2023/07/05 10:22:15;;;;;;;11.45;6.87;;;;;;;30.83;37.36;99440.34;4374078;32;34870;-62
2023/07/05 10:24:47;;;;;;;11.98;5.07;;;;;;;31.14;37.68;99444.37;4378151;32;34701;-62
2023/07/05 10:27:33;;;;;;;11.85;5.60;;;;;;;31.47;35.84;99440.66;4375615;32;33910;-62
2023/07/05 10:30:07;;;;;;;11.00;6.07;;;;;;;31.38;36.65;99431.13;4395324;32;34978;-62
2023/07/05 10:32:36;;;;;;;9.38;5.87;;;;;;;31.87;35.43;99431.09;4407531;32;33832;-62
2023/07/05 10:35:15;;;;;;;10.38;6.50;;;;;;;32.21;34.24;99442.78;4435999;32;33354;-61
2023/07/05 10:37:43;;;;;;;9.77;6.45;;;;;;;31.91;33.33;99437.84;4425630;32;34492;-61
2023/07/05 10:40:11;;;;;;;11.18;6.37;;;;;;;31.63;34.32;99436.13;4435028;32;33559;-61
2023/07/05 10:42:41;;;;;;;10.88;5.65;;;;;;;31.03;35.82;99432.34;4435365;32;33568;-61
2023/07/05 10:45:13;;;;;;;11.12;4.50;;;;;;;30.98;36.06;99435.03;4422207;32;34436;-61
2023/07/05 10:47:41;;;;;;;9.25;5.25;;;;;;;31.27;35.39;99432.94;4429505;32;33270;-61
2023/07/05 10:50:09;;;;;;;11.88;6.32;;;;;;;30.93;35.80;99426.69;4418417;32;33661;-61
2023/07/05 10:52:41;;;;;;;9.68;5.50;;;;;;;31.23;35.52;99422.63;4416787;32;35024;-62
2023/07/05 10:55:19;;;;;;;10.40;5.80;;;;;;;30.94;36.93;99421.97;4417187;32;33914;-62
2023/07/05 10:57:53;;;;;;;10.60;5.32;;;;;;;31.20;35.51;99431.44;4417045;32;33204;-61
2023/07/05 11:00:24;;;;;;;;;;;;;;;31.28;36.09;99423.53;4417643;32;34624;-61
2023/07/05 11:03:11;;;;;;;9.65;6.37;;;;;;;31.07;34.48;99411.38;4417439;32;34455;-62
2023/07/05 11:05:42;;;;;;;9.63;5.90;;;;;;;31.45;34.72;99417.13;4416828;32;33738;-61
2023/07/05 11:08:17;;;;;;;12.10;6.68;;;;;;;31.45;34.93;99417.13;4400338;32;33215;-61
2023/07/05 11:10:46;;;;;;;10.45;5.65;;;;;;;31.88;34.48;99407.03;4402257;32;33687;-62
2023/07/05 11:13:16;;;;;;;10.73;6.62;;;;;;;31.54;33.98;99413.63;4398682;32;34445;-62
2023/07/05 11:15:44;;;;;;;9.70;4.93;;;;;;;31.91;33.35;99403.75;4401451;32;33875;-62
2023/07/05 11:18:20;;;;;;;10.50;5.62;;;;;;;31.75;34.15;99406.37;4384691;32;34328;-63
2023/07/05 11:20:54;;;;;;;9.98;5.82;;;;;;;32.09;33.92;99400.59;4407927;32;33416;-62
2023/07/05 11:23:40;;;;;;;9.38;4.93;;;;;;;32.39;34.32;99401.94;4416544;32;33928;-62
2023/07/05 11:26:27;;;;;;;7.97;5.35;;;;;;;32.30;34.56;99395.25;4416314;32;33681;-62
2023/07/05 11:28:55;;;;;;;14.02;7.32;;;;;;;32.21;34.03;99395.72;4409010;32;34077;-62
2023/07/05 11:31:23;;;;;;;9.40;6.62;;;;;;;32.34;33.76;99401.91;4415218;32;34040;-62
2023/07/05 11:34:21;;;;;;;15.23;6.37;;;;;;;32.22;33.32;99391.03;4416705;32;37397;-62
2023/07/05 11:36:52;;;;;;;11.05;7.28;;;;;;;32.13;32.99;99396.19;4415029;32;34628;-62
2023/07/05 11:39:37;;;;;;;9.55;6.07;;;;;;;32.06;33.85;99389.22;4384651;32;33369;-62
2023/07/05 11:42:14;;;;;;;10.48;6.78;;;;;;;31.92;32.93;99381.38;4390263;32;34504;-62
2023/07/05 11:44:47;;;;;;;11.15;7.20;;;;;;;32.01;33.73;99376.19;4391171;32;35675;-62
2023/07/05 11:47:23;;;;;;;9.02;6.53;;;;;;;32.03;33.80;99385.06;4397322;32;33584;-62
2023/07/05 11:49:58;;;;;;;10.07;6.03;;;;;;;32.14;33.83;99375.75;4401355;32;34212;-62
2023/07/05 11:52:30;;;;;;;14.32;7.12;;;;;;;32.35;33.13;99373.12;4391000;32;34489;-62